Almo, KY

7:06 AM CDT on August 29, 2014 (GMT -0500)
Metropolis | Change Station
CLOSE
Current Station
Airport
Location: Metropolis,
Elevation: 384 ft
Nearby Weather Stations

Elev 384 ft 37.18 °N, 88.75 °W | Updated 11 minutes ago

Mist
Mist
70 °F
Feels Like 70 °F
N
0
Wind Variable Wind from North

Today
High -- | Low -- °F
--% Chance of Precip.
Yesterday
High -- | Low -- °F
Precip. -- in
6:22 AM 7:25 PM
Waxing Crescent, 14% visible
Pressure 29.98 in
Visibility 1.5 miles
Clouds
Dew Point 70 °F
Humidity 100%
Rainfall 0.00 in
Snow Depth Not available.
UV Not available.
Pollen 10.60 out of 12
Air Quality Not available.
Flu Activity Not available.
METAR KM30 291155Z AUTO 00000KT 1 1/2SM BR VV007 21/21 A2998 RMK AO2 7//// T02130213 10218 20210

More Conditions Fewer Conditions

Pressure 29.98 in
Visibility 1.5 miles
Clouds
Dew Point 70 °F
Humidity 100%
Rainfall 0.00 in
Snow Depth Not available.
UV Not available.
Pollen 10.60 out of 12
Air Quality Not available.
Flu Activity Not available.
METAR KM30 291155Z AUTO 00000KT 1 1/2SM BR VV007 21/21 A2998 RMK AO2 7//// T02130213 10218 20210

More Conditions Fewer Conditions

10-Day Weather Forecast

Almanac

Astronomy

Aug. 29, 2014 Rise Set
Actual Time 6:22 AM CDT 7:25 PM CDT
Civil Twilight 5:55 AM CDT 7:52 PM CDT
Nautical Twilight 5:23 AM CDT 8:23 PM CDT
Astronomical Twilight 4:51 AM CDT 8:56 PM CDT
Moon 10:04 AM CDT 9:31 PM CDT
Length of Visible Light 13h 56m
Length of Day
13h 03m
Tomorrow will be 2m 13s shorter.
Waxing Crescent, 14% of the Moon is Illuminated
Today
Waxing Crescent
Sep 2
First Quarter
Sep 8
Full
Sep 15
Last Quarter
Sep 24
New

Today's Extremes

State Highs State Lows

Community

WunderPhotos

Upload Photos

1,748,214 photos uploaded!

Nearby

Snow Depth

Station Depth Elevation
No new snow has been reported.

Earthquake Activity

City Distance Mag. Time & Date
No recent earthquake activity has been reported nearby.
Minimum magnitude displayed is 2.5.

Coastal Water Temperatures

Place Temperature
No Stations Reporting

Nearby Weather Stations